sensor_id;sensor_type;location;lat;lon;timestamp;temperature;humidity
20242;DHT22;10279;46.388;8.116;2022-09-09T00:00:34;17.50;99.90
20242;DHT22;10279;46.388;8.116;2022-09-09T00:03:18;17.50;99.90
20242;DHT22;10279;46.388;8.116;2022-09-09T00:08:52;17.30;99.90
20242;DHT22;10279;46.388;8.116;2022-09-09T00:11:21;17.30;99.90
20242;DHT22;10279;46.388;8.116;2022-09-09T00:13:59;17.20;99.90
20242;DHT22;10279;46.388;8.116;2022-09-09T00:16:28;17.30;99.90
20242;DHT22;10279;46.388;8.116;2022-09-09T00:19:23;17.30;99.90
20242;DHT22;10279;46.388;8.116;2022-09-09T00:22:18;17.40;99.90
20242;DHT22;10279;46.388;8.116;2022-09-09T00:24:54;17.40;99.90
20242;DHT22;10279;46.388;8.116;2022-09-09T00:28:10;17.30;99.90
20242;DHT22;10279;46.388;8.116;2022-09-09T00:30:19;17.20;99.90
20242;DHT22;10279;46.388;8.116;2022-09-09T00:32:55;17.20;99.90
20242;DHT22;10279;46.388;8.116;2022-09-09T00:35:28;17.00;99.90
20242;DHT22;10279;46.388;8.116;2022-09-09T00:38:02;17.00;99.90
20242;DHT22;10279;46.388;8.116;2022-09-09T00:40:35;17.10;99.90
20242;DHT22;10279;46.388;8.116;2022-09-09T00:48:25;17.00;99.90
20242;DHT22;10279;46.388;8.116;2022-09-09T00:56:14;16.90;99.90
20242;DHT22;10279;46.388;8.116;2022-09-09T00:59:12;17.00;99.90
20242;DHT22;10279;46.388;8.116;2022-09-09T01:01:43;17.00;99.90
20242;DHT22;10279;46.388;8.116;2022-09-09T01:04:18;17.00;99.90
20242;DHT22;10279;46.388;8.116;2022-09-09T01:06:54;17.00;99.90
20242;DHT22;10279;46.388;8.116;2022-09-09T01:12:41;16.90;99.90
20242;DHT22;10279;46.388;8.116;2022-09-09T01:15:12;16.90;99.90
20242;DHT22;10279;46.388;8.116;2022-09-09T01:18:00;16.80;99.90
20242;DHT22;10279;46.388;8.116;2022-09-09T01:20:53;16.70;99.90
20242;DHT22;10279;46.388;8.116;2022-09-09T01:23:48;16.70;99.90
20242;DHT22;10279;46.388;8.116;2022-09-09T01:26:35;16.70;99.90
20242;DHT22;10279;46.388;8.116;2022-09-09T01:29:11;16.70;99.90
20242;DHT22;10279;46.388;8.116;2022-09-09T01:31:54;16.60;99.90
20242;DHT22;10279;46.388;8.116;2022-09-09T01:34:24;16.60;99.90
20242;DHT22;10279;46.388;8.116;2022-09-09T01:36:57;16.60;99.90
20242;DHT22;10279;46.388;8.116;2022-09-09T01:39:26;16.50;99.90
20242;DHT22;10279;46.388;8.116;2022-09-09T01:41:54;16.40;99.90
20242;DHT22;10279;46.388;8.116;2022-09-09T01:44:23;16.50;99.90
20242;DHT22;10279;46.388;8.116;2022-09-09T01:46:51;16.50;99.90
20242;DHT22;10279;46.388;8.116;2022-09-09T01:49:18;16.50;99.90
20242;DHT22;10279;46.388;8.116;2022-09-09T01:51:54;16.50;99.90
20242;DHT22;10279;46.388;8.116;2022-09-09T01:54:24;16.50;99.90
20242;DHT22;10279;46.388;8.116;2022-09-09T02:02:40;16.50;99.90
20242;DHT22;10279;46.388;8.116;2022-09-09T02:08:45;16.40;99.90
20242;DHT22;10279;46.388;8.116;2022-09-09T02:11:11;16.40;99.90
20242;DHT22;10279;46.388;8.116;2022-09-09T02:13:40;16.30;99.90
20242;DHT22;10279;46.388;8.116;2022-09-09T02:16:24;16.30;99.90
20242;DHT22;10279;46.388;8.116;2022-09-09T02:19:15;16.30;99.90
20242;DHT22;10279;46.388;8.116;2022-09-09T02:21:45;16.30;99.90
20242;DHT22;10279;46.388;8.116;2022-09-09T02:24:16;16.20;99.90
20242;DHT22;10279;46.388;8.116;2022-09-09T02:26:46;16.30;99.90
20242;DHT22;10279;46.388;8.116;2022-09-09T02:29:20;16.30;99.90
20242;DHT22;10279;46.388;8.116;2022-09-09T02:31:49;16.30;99.90
20242;DHT22;10279;46.388;8.116;2022-09-09T02:34:20;16.30;99.90
20242;DHT22;10279;46.388;8.116;2022-09-09T02:36:49;16.30;99.90
20242;DHT22;10279;46.388;8.116;2022-09-09T02:39:17;16.20;99.90
20242;DHT22;10279;46.388;8.116;2022-09-09T02:41:44;16.20;99.90
20242;DHT22;10279;46.388;8.116;2022-09-09T02:44:15;16.20;99.90
20242;DHT22;10279;46.388;8.116;2022-09-09T02:47:16;16.10;99.90
20242;DHT22;10279;46.388;8.116;2022-09-09T02:50:11;16.10;99.90
20242;DHT22;10279;46.388;8.116;2022-09-09T02:55:43;16.10;99.90
20242;DHT22;10279;46.388;8.116;2022-09-09T02:58:15;16.00;99.90
20242;DHT22;10279;46.388;8.116;2022-09-09T03:00:48;16.00;99.90
20242;DHT22;10279;46.388;8.116;2022-09-09T03:03:16;16.00;99.90
20242;DHT22;10279;46.388;8.116;2022-09-09T03:05:45;16.00;99.90
20242;DHT22;10279;46.388;8.116;2022-09-09T03:08:15;16.10;99.90
20242;DHT22;10279;46.388;8.116;2022-09-09T03:10:43;16.10;99.90
20242;DHT22;10279;46.388;8.116;2022-09-09T03:13:11;16.10;99.90
20242;DHT22;10279;46.388;8.116;2022-09-09T03:15:39;16.00;99.90
20242;DHT22;10279;46.388;8.116;2022-09-09T03:18:07;15.90;99.90
20242;DHT22;10279;46.388;8.116;2022-09-09T03:20:34;15.90;99.90
20242;DHT22;10279;46.388;8.116;2022-09-09T03:23:01;15.80;99.90
20242;DHT22;10279;46.388;8.116;2022-09-09T03:25:29;15.80;99.90
20242;DHT22;10279;46.388;8.116;2022-09-09T03:27:56;15.80;99.90
20242;DHT22;10279;46.388;8.116;2022-09-09T03:30:25;15.80;99.90
20242;DHT22;10279;46.388;8.116;2022-09-09T03:32:52;15.80;99.90
20242;DHT22;10279;46.388;8.116;2022-09-09T03:35:19;15.90;99.90
20242;DHT22;10279;46.388;8.116;2022-09-09T03:37:47;15.90;99.90
20242;DHT22;10279;46.388;8.116;2022-09-09T03:40:17;15.90;99.90
20242;DHT22;10279;46.388;8.116;2022-09-09T03:42:44;15.90;99.90
20242;DHT22;10279;46.388;8.116;2022-09-09T03:45:12;15.90;99.90
20242;DHT22;10279;46.388;8.116;2022-09-09T03:47:41;15.90;99.90
20242;DHT22;10279;46.388;8.116;2022-09-09T03:50:08;15.90;99.90
20242;DHT22;10279;46.388;8.116;2022-09-09T03:52:38;15.90;99.90
20242;DHT22;10279;46.388;8.116;2022-09-09T03:55:07;15.80;99.90
20242;DHT22;10279;46.388;8.116;2022-09-09T03:57:34;15.80;99.90
20242;DHT22;10279;46.388;8.116;2022-09-09T04:00:06;15.80;99.90
20242;DHT22;10279;46.388;8.116;2022-09-09T04:02:34;15.80;99.90
20242;DHT22;10279;46.388;8.116;2022-09-09T04:05:01;15.80;99.90
20242;DHT22;10279;46.388;8.116;2022-09-09T04:07:28;15.80;99.90
20242;DHT22;10279;46.388;8.116;2022-09-09T04:09:55;15.80;99.90
20242;DHT22;10279;46.388;8.116;2022-09-09T04:12:23;15.90;99.90
20242;DHT22;10279;46.388;8.116;2022-09-09T04:14:50;15.90;99.90
20242;DHT22;10279;46.388;8.116;2022-09-09T04:17:17;15.90;99.90
20242;DHT22;10279;46.388;8.116;2022-09-09T04:19:45;16.00;99.90
20242;DHT22;10279;46.388;8.116;2022-09-09T04:22:12;15.90;99.90
20242;DHT22;10279;46.388;8.116;2022-09-09T04:24:39;15.90;99.90
20242;DHT22;10279;46.388;8.116;2022-09-09T04:27:06;15.80;99.90
20242;DHT22;10279;46.388;8.116;2022-09-09T04:29:33;15.80;99.90
20242;DHT22;10279;46.388;8.116;2022-09-09T04:32:00;15.90;99.90
20242;DHT22;10279;46.388;8.116;2022-09-09T04:34:27;15.90;99.90
20242;DHT22;10279;46.388;8.116;2022-09-09T04:36:55;15.90;99.90
20242;DHT22;10279;46.388;8.116;2022-09-09T04:39:23;15.90;99.90
20242;DHT22;10279;46.388;8.116;2022-09-09T04:41:50;15.90;99.90
20242;DHT22;10279;46.388;8.116;2022-09-09T04:44:20;15.90;99.90
20242;DHT22;10279;46.388;8.116;2022-09-09T04:46:47;15.90;99.90
20242;DHT22;10279;46.388;8.116;2022-09-09T04:49:14;15.80;99.90
20242;DHT22;10279;46.388;8.116;2022-09-09T04:51:41;15.80;99.90
20242;DHT22;10279;46.388;8.116;2022-09-09T04:54:08;15.90;99.90
20242;DHT22;10279;46.388;8.116;2022-09-09T04:56:35;15.90;99.90
20242;DHT22;10279;46.388;8.116;2022-09-09T04:59:03;16.00;99.90
20242;DHT22;10279;46.388;8.116;2022-09-09T05:01:30;16.00;99.90
20242;DHT22;10279;46.388;8.116;2022-09-09T05:03:57;16.00;99.90
20242;DHT22;10279;46.388;8.116;2022-09-09T05:06:24;16.00;99.90
20242;DHT22;10279;46.388;8.116;2022-09-09T05:08:52;16.00;99.90
20242;DHT22;10279;46.388;8.116;2022-09-09T05:11:24;16.00;99.90
20242;DHT22;10279;46.388;8.116;2022-09-09T05:13:53;16.00;99.90
20242;DHT22;10279;46.388;8.116;2022-09-09T05:16:21;16.10;99.90
20242;DHT22;10279;46.388;8.116;2022-09-09T05:18:50;16.10;99.90
20242;DHT22;10279;46.388;8.116;2022-09-09T05:21:19;16.00;99.90
20242;DHT22;10279;46.388;8.116;2022-09-09T05:23:47;16.00;99.90
20242;DHT22;10279;46.388;8.116;2022-09-09T05:26:18;16.00;99.90
20242;DHT22;10279;46.388;8.116;2022-09-09T05:28:46;16.10;99.90
20242;DHT22;10279;46.388;8.116;2022-09-09T05:31:15;16.10;99.90
20242;DHT22;10279;46.388;8.116;2022-09-09T05:33:45;16.10;99.90
20242;DHT22;10279;46.388;8.116;2022-09-09T05:36:20;16.20;99.90
20242;DHT22;10279;46.388;8.116;2022-09-09T05:38:48;16.10;99.90
20242;DHT22;10279;46.388;8.116;2022-09-09T05:41:17;16.10;99.90
20242;DHT22;10279;46.388;8.116;2022-09-09T05:43:44;16.00;99.90
20242;DHT22;10279;46.388;8.116;2022-09-09T05:46:14;15.90;99.90
20242;DHT22;10279;46.388;8.116;2022-09-09T05:48:44;15.80;99.90
20242;DHT22;10279;46.388;8.116;2022-09-09T05:51:15;15.80;99.90
20242;DHT22;10279;46.388;8.116;2022-09-09T05:53:43;15.80;99.90
20242;DHT22;10279;46.388;8.116;2022-09-09T05:56:21;15.90;99.90
20242;DHT22;10279;46.388;8.116;2022-09-09T05:58:55;16.00;99.90
20242;DHT22;10279;46.388;8.116;2022-09-09T06:01:23;16.10;99.90
20242;DHT22;10279;46.388;8.116;2022-09-09T06:03:51;16.10;99.90
20242;DHT22;10279;46.388;8.116;2022-09-09T06:06:21;16.20;99.90
20242;DHT22;10279;46.388;8.116;2022-09-09T06:08:51;16.20;99.90
20242;DHT22;10279;46.388;8.116;2022-09-09T06:11:25;16.10;99.90
20242;DHT22;10279;46.388;8.116;2022-09-09T06:13:53;16.10;99.90
20242;DHT22;10279;46.388;8.116;2022-09-09T06:16:23;16.10;99.90
20242;DHT22;10279;46.388;8.116;2022-09-09T06:18:52;16.10;99.90
20242;DHT22;10279;46.388;8.116;2022-09-09T06:21:28;16.10;99.90
20242;DHT22;10279;46.388;8.116;2022-09-09T06:23:57;16.10;99.90
20242;DHT22;10279;46.388;8.116;2022-09-09T06:26:32;16.10;99.90
20242;DHT22;10279;46.388;8.116;2022-09-09T06:29:00;16.10;99.90
20242;DHT22;10279;46.388;8.116;2022-09-09T06:31:28;16.10;99.90
20242;DHT22;10279;46.388;8.116;2022-09-09T06:33:58;16.10;99.90
20242;DHT22;10279;46.388;8.116;2022-09-09T06:36:27;16.10;99.90
20242;DHT22;10279;46.388;8.116;2022-09-09T06:38:55;16.10;99.90
20242;DHT22;10279;46.388;8.116;2022-09-09T06:41:24;16.10;99.90
20242;DHT22;10279;46.388;8.116;2022-09-09T06:43:53;16.10;99.90
20242;DHT22;10279;46.388;8.116;2022-09-09T06:46:25;16.20;99.90
20242;DHT22;10279;46.388;8.116;2022-09-09T06:48:55;16.20;99.90
20242;DHT22;10279;46.388;8.116;2022-09-09T06:51:31;16.20;99.90
20242;DHT22;10279;46.388;8.116;2022-09-09T06:54:00;16.20;99.90
20242;DHT22;10279;46.388;8.116;2022-09-09T06:56:31;16.20;99.90
20242;DHT22;10279;46.388;8.116;2022-09-09T06:59:01;16.40;99.90
20242;DHT22;10279;46.388;8.116;2022-09-09T07:01:33;16.40;99.90
20242;DHT22;10279;46.388;8.116;2022-09-09T07:04:00;16.40;99.90
20242;DHT22;10279;46.388;8.116;2022-09-09T07:06:37;16.50;99.90
20242;DHT22;10279;46.388;8.116;2022-09-09T07:09:09;16.60;99.90
20242;DHT22;10279;46.388;8.116;2022-09-09T07:11:44;16.70;99.90
20242;DHT22;10279;46.388;8.116;2022-09-09T07:14:12;16.80;99.90
20242;DHT22;10279;46.388;8.116;2022-09-09T07:16:43;16.80;99.90
20242;DHT22;10279;46.388;8.116;2022-09-09T07:19:11;16.70;99.90
20242;DHT22;10279;46.388;8.116;2022-09-09T07:21:39;16.70;99.90
20242;DHT22;10279;46.388;8.116;2022-09-09T07:24:09;16.70;99.90
20242;DHT22;10279;46.388;8.116;2022-09-09T07:26:38;16.80;99.90
20242;DHT22;10279;46.388;8.116;2022-09-09T07:29:08;16.90;99.90
20242;DHT22;10279;46.388;8.116;2022-09-09T07:31:37;16.90;99.90
20242;DHT22;10279;46.388;8.116;2022-09-09T07:34:06;17.00;99.90
20242;DHT22;10279;46.388;8.116;2022-09-09T07:36:38;17.10;99.90
20242;DHT22;10279;46.388;8.116;2022-09-09T07:39:11;17.00;99.90
20242;DHT22;10279;46.388;8.116;2022-09-09T07:41:47;16.80;99.90
20242;DHT22;10279;46.388;8.116;2022-09-09T07:44:19;16.70;99.90
20242;DHT22;10279;46.388;8.116;2022-09-09T07:47:03;16.80;99.90
20242;DHT22;10279;46.388;8.116;2022-09-09T07:49:31;16.70;99.90
20242;DHT22;10279;46.388;8.116;2022-09-09T07:51:59;16.60;99.90
20242;DHT22;10279;46.388;8.116;2022-09-09T07:54:26;16.60;99.90
20242;DHT22;10279;46.388;8.116;2022-09-09T07:56:53;16.60;99.90
20242;DHT22;10279;46.388;8.116;2022-09-09T07:59:20;16.70;99.90
20242;DHT22;10279;46.388;8.116;2022-09-09T08:01:51;16.70;99.90
20242;DHT22;10279;46.388;8.116;2022-09-09T08:04:25;16.80;99.90
20242;DHT22;10279;46.388;8.116;2022-09-09T08:06:56;16.90;99.90
20242;DHT22;10279;46.388;8.116;2022-09-09T08:09:25;16.90;99.90
20242;DHT22;10279;46.388;8.116;2022-09-09T08:11:54;16.80;99.90
20242;DHT22;10279;46.388;8.116;2022-09-09T08:14:22;16.70;99.90
20242;DHT22;10279;46.388;8.116;2022-09-09T08:16:50;16.80;99.90
20242;DHT22;10279;46.388;8.116;2022-09-09T08:19:20;16.80;99.90
20242;DHT22;10279;46.388;8.116;2022-09-09T08:21:47;16.70;99.90
20242;DHT22;10279;46.388;8.116;2022-09-09T08:24:15;16.60;99.90
20242;DHT22;10279;46.388;8.116;2022-09-09T08:26:44;16.60;99.90
20242;DHT22;10279;46.388;8.116;2022-09-09T08:29:13;16.50;99.90
20242;DHT22;10279;46.388;8.116;2022-09-09T08:31:43;16.50;99.90
20242;DHT22;10279;46.388;8.116;2022-09-09T08:34:11;16.50;99.90
20242;DHT22;10279;46.388;8.116;2022-09-09T08:36:43;16.60;99.90
20242;DHT22;10279;46.388;8.116;2022-09-09T08:39:15;16.70;99.90
20242;DHT22;10279;46.388;8.116;2022-09-09T08:47:21;17.00;99.90
20242;DHT22;10279;46.388;8.116;2022-09-09T08:50:35;17.10;99.90
20242;DHT22;10279;46.388;8.116;2022-09-09T08:58:16;17.20;99.90
20242;DHT22;10279;46.388;8.116;2022-09-09T09:09:06;17.20;99.90
20242;DHT22;10279;46.388;8.116;2022-09-09T09:11:38;17.20;99.90
20242;DHT22;10279;46.388;8.116;2022-09-09T09:19:24;17.30;99.90
20242;DHT22;10279;46.388;8.116;2022-09-09T09:31:19;17.60;99.90
20242;DHT22;10279;46.388;8.116;2022-09-09T09:33:49;17.70;99.90
20242;DHT22;10279;46.388;8.116;2022-09-09T09:36:17;17.80;99.90
20242;DHT22;10279;46.388;8.116;2022-09-09T09:38:58;17.90;99.90
20242;DHT22;10279;46.388;8.116;2022-09-09T09:41:47;18.00;99.90
20242;DHT22;10279;46.388;8.116;2022-09-09T09:44:26;18.10;99.90
20242;DHT22;10279;46.388;8.116;2022-09-09T09:47:10;18.20;99.90
20242;DHT22;10279;46.388;8.116;2022-09-09T09:49:39;18.20;99.90
20242;DHT22;10279;46.388;8.116;2022-09-09T09:52:22;18.30;99.90
20242;DHT22;10279;46.388;8.116;2022-09-09T09:54:53;18.10;99.90
20242;DHT22;10279;46.388;8.116;2022-09-09T09:57:25;18.10;99.90
20242;DHT22;10279;46.388;8.116;2022-09-09T10:00:21;18.10;99.90
20242;DHT22;10279;46.388;8.116;2022-09-09T10:02:51;18.20;99.90
20242;DHT22;10279;46.388;8.116;2022-09-09T10:05:23;18.40;99.90
20242;DHT22;10279;46.388;8.116;2022-09-09T10:08:10;18.40;99.90
20242;DHT22;10279;46.388;8.116;2022-09-09T10:10:56;18.60;99.90
20242;DHT22;10279;46.388;8.116;2022-09-09T10:19:34;18.80;99.90
20242;DHT22;10279;46.388;8.116;2022-09-09T10:22:27;18.90;99.20
20242;DHT22;10279;46.388;8.116;2022-09-09T10:33:04;19.20;96.30
20242;DHT22;10279;46.388;8.116;2022-09-09T10:38:23;19.40;93.70
20242;DHT22;10279;46.388;8.116;2022-09-09T10:49:28;19.70;93.50
20242;DHT22;10279;46.388;8.116;2022-09-09T10:55:00;19.90;93.50
20242;DHT22;10279;46.388;8.116;2022-09-09T10:57:36;19.90;94.10
